Wetterdaten: Woche 25.06.18 - 01.07.18 (KW26)
Datum Zeit Temperatur Luftfeuchte Luftdruck Niederschlag Windrichtung Sonnenschein Solar Wind
25.06.2018 00:00 12,7 C 78 % 1017,7 hPa 0,0 l/m N 0,00 h 0 W/m 0,0 km/h (0 Bft)
25.06.2018 01:00 12,8 C 79 % 1017,7 hPa 0,0 l/m N 0,00 h 0 W/m 0,0 km/h (0 Bft)
25.06.2018 02:00 12,7 C 82 % 1017,6 hPa 0,0 l/m N 0,00 h 0 W/m 0,0 km/h (0 Bft)
25.06.2018 03:00 12,5 C 87 % 1017,7 hPa 0,0 l/m N 0,00 h 0 W/m 0,3 km/h (0 Bft)
25.06.2018 04:00 12,2 C 91 % 1017,6 hPa 0,2 l/m N 0,00 h 0 W/m 0,0 km/h (0 Bft)
25.06.2018 05:00 12,0 C 94 % 1017,8 hPa 0,2 l/m N 0,00 h 11 W/m 0,0 km/h (0 Bft)
25.06.2018 06:00 12,0 C 96 % 1018,1 hPa 0,0 l/m N 0,00 h 31 W/m 0,0 km/h (0 Bft)
25.06.2018 07:00 12,6 C 93 % 1018,5 hPa 0,0 l/m N 0,00 h 73 W/m 0,0 km/h (0 Bft)
25.06.2018 08:00 13,4 C 86 % 1018,9 hPa 0,0 l/m N-NO 0,50 h 265 W/m 6,7 km/h (2 Bft)
25.06.2018 09:00 14,5 C 79 % 1019,1 hPa 0,0 l/m N 0,17 h 267 W/m 5,1 km/h (1 Bft)
25.06.2018 10:00 15,5 C 74 % 1019,2 hPa 0,0 l/m NO 0,17 h 422 W/m 7,7 km/h (2 Bft)
25.06.2018 11:00 16,0 C 71 % 1019,4 hPa 0,2 l/m N-NO 0,00 h 352 W/m 8,7 km/h (2 Bft)
25.06.2018 12:00 17,2 C 66 % 1019,8 hPa 0,0 l/m O-NO 0,58 h 556 W/m 10,7 km/h (2 Bft)
25.06.2018 13:00 18,6 C 59 % 1019,8 hPa 0,0 l/m NO 0,75 h 594 W/m 9,1 km/h (2 Bft)
25.06.2018 14:00 19,4 C 56 % 1019,7 hPa 0,0 l/m O-NO 1,00 h 629 W/m 11,7 km/h (2 Bft)
25.06.2018 15:00 19,7 C 54 % 1019,6 hPa 0,0 l/m NO 0,67 h 543 W/m 10,3 km/h (2 Bft)
25.06.2018 16:00 20,4 C 51 % 1019,5 hPa 0,0 l/m N-NO 0,42 h 480 W/m 7,2 km/h (2 Bft)
25.06.2018 17:00 20,2 C 50 % 1019,3 hPa 0,0 l/m NO 0,58 h 440 W/m 7,4 km/h (2 Bft)
25.06.2018 18:00 20,3 C 49 % 1019,2 hPa 0,0 l/m O-NO 0,67 h 345 W/m 4,6 km/h (1 Bft)
25.06.2018 19:00 18,8 C 54 % 1019,4 hPa 0,0 l/m N 0,17 h 92 W/m 1,3 km/h (1 Bft)
25.06.2018 20:00 18,1 C 58 % 1019,5 hPa 0,0 l/m N 0,25 h 60 W/m 0,0 km/h (0 Bft)
25.06.2018 21:00 15,6 C 72 % 1019,9 hPa 0,0 l/m N 0,17 h 9 W/m 0,1 km/h (0 Bft)
25.06.2018 22:00 13,8 C 78 % 1020,6 hPa 0,0 l/m N 0,00 h 0 W/m 0,0 km/h (0 Bft)
25.06.2018 23:00 12,8 C 83 % 1020,6 hPa 0,0 l/m N 0,00 h 0 W/m 0,0 km/h (0 Bft)
26.06.2018 00:00 12,0 C 86 % 1020,7 hPa 0,0 l/m N 0,00 h 0 W/m 0,0 km/h (0 Bft)
26.06.2018 01:00 11,5 C 86 % 1020,7 hPa 0,0 l/m N 0,00 h 0 W/m 0,0 km/h (0 Bft)
26.06.2018 02:00 11,0 C 87 % 1020,6 hPa 0,0 l/m N 0,00 h 0 W/m 0,0 km/h (0 Bft)
26.06.2018 03:00 10,5 C 89 % 1020,2 hPa 0,0 l/m N 0,00 h 0 W/m 0,0 km/h (0 Bft)
26.06.2018 04:00 9,8 C 92 % 1020,0 hPa 0,0 l/m N 0,00 h 0 W/m 0,0 km/h (0 Bft)
26.06.2018 05:00 10,7 C 90 % 1020,1 hPa 0,0 l/m N 0,00 h 10 W/m 0,3 km/h (0 Bft)
26.06.2018 06:00 10,9 C 88 % 1020,2 hPa 0,0 l/m N 0,17 h 67 W/m 0,0 km/h (0 Bft)
26.06.2018 07:00 12,8 C 84 % 1020,4 hPa 0,0 l/m N 0,08 h 144 W/m 0,0 km/h (0 Bft)
26.06.2018 08:00 15,1 C 77 % 1020,4 hPa 0,0 l/m N 0,58 h 322 W/m 0,7 km/h (0 Bft)
26.06.2018 09:00 17,1 C 72 % 1020,1 hPa 0,0 l/m N 0,92 h 390 W/m 0,8 km/h (0 Bft)
26.06.2018 10:00 18,7 C 64 % 1020,2 hPa 0,0 l/m N 0,75 h 464 W/m 0,9 km/h (0 Bft)
26.06.2018 11:00 19,9 C 59 % 1020,1 hPa 0,0 l/m O 0,83 h 773 W/m 4,3 km/h (1 Bft)
26.06.2018 12:00 21,4 C 54 % 1019,8 hPa 0,0 l/m O 0,58 h 683 W/m 7,9 km/h (2 Bft)
26.06.2018 13:00 19,7 C 60 % 1019,7 hPa 0,0 l/m NO 0,00 h 231 W/m 12,5 km/h (3 Bft)
26.06.2018 14:00 20,2 C 62 % 1019,6 hPa 0,0 l/m NO 0,33 h 482 W/m 11,0 km/h (2 Bft)
26.06.2018 15:00 21,3 C 58 % 1019,2 hPa 0,0 l/m NO 0,67 h 708 W/m 7,9 km/h (2 Bft)
26.06.2018 16:00 21,0 C 60 % 1019,0 hPa 0,0 l/m NO 0,25 h 380 W/m 10,8 km/h (2 Bft)
26.06.2018 17:00 21,4 C 60 % 1019,0 hPa 0,0 l/m NO 0,67 h 442 W/m 13,4 km/h (3 Bft)
26.06.2018 18:00 21,1 C 62 % 1019,1 hPa 0,0 l/m NO 1,00 h 380 W/m 14,8 km/h (3 Bft)
26.06.2018 19:00 19,7 C 66 % 1019,4 hPa 0,0 l/m NO 0,92 h 191 W/m 13,8 km/h (3 Bft)
26.06.2018 20:00 18,0 C 74 % 1019,7 hPa 0,0 l/m N 0,00 h 30 W/m 1,6 km/h (1 Bft)
26.06.2018 21:00 17,2 C 76 % 1019,9 hPa 0,0 l/m N 0,00 h 8 W/m 0,0 km/h (0 Bft)
26.06.2018 22:00 16,6 C 79 % 1020,0 hPa 0,0 l/m N 0,00 h 0 W/m 0,0 km/h (0 Bft)
26.06.2018 23:00 15,6 C 83 % 1020,1 hPa 0,0 l/m N 0,00 h 0 W/m 0,0 km/h (0 Bft)
27.06.2018 00:00 15,3 C 84 % 1020,0 hPa 0,0 l/m N 0,00 h 0 W/m 0,0 km/h (0 Bft)
27.06.2018 01:00 13,6 C 89 % 1019,6 hPa 0,0 l/m N 0,00 h 0 W/m 0,0 km/h (0 Bft)
27.06.2018 02:00 12,4 C 94 % 1019,2 hPa 0,0 l/m N 0,00 h 0 W/m 0,0 km/h (0 Bft)
27.06.2018 03:00 12,0 C 96 % 1018,8 hPa 0,0 l/m N 0,00 h 0 W/m 0,0 km/h (0 Bft)
27.06.2018 04:00 11,7 C 96 % 1018,7 hPa 0,0 l/m N 0,00 h 0 W/m 0,0 km/h (0 Bft)
27.06.2018 05:00 11,7 C 96 % 1018,9 hPa 0,0 l/m N 0,00 h 12 W/m 0,0 km/h (0 Bft)
27.06.2018 06:00 12,3 C 95 % 1019,0 hPa 0,0 l/m N 0,25 h 74 W/m 0,0 km/h (0 Bft)
27.06.2018 07:00 14,0 C 90 % 1019,3 hPa 0,0 l/m NO 0,67 h 201 W/m 3,8 km/h (1 Bft)
27.06.2018 08:00 16,3 C 78 % 1019,5 hPa 0,0 l/m O-NO 1,00 h 398 W/m 11,5 km/h (2 Bft)
27.06.2018 09:00 18,3 C 69 % 1019,3 hPa 0,0 l/m O 0,75 h 425 W/m 11,3 km/h (2 Bft)
27.06.2018 10:00 19,9 C 62 % 1019,0 hPa 0,0 l/m NO 0,92 h 621 W/m 11,5 km/h (2 Bft)
27.06.2018 11:00 21,2 C 55 % 1018,6 hPa 0,0 l/m NO 1,00 h 816 W/m 14,0 km/h (3 Bft)
27.06.2018 12:00 22,1 C 51 % 1018,1 hPa 0,0 l/m NO 0,75 h 766 W/m 11,5 km/h (2 Bft)
27.06.2018 13:00 21,9 C 53 % 1017,6 hPa 0,0 l/m NO 0,33 h 526 W/m 12,5 km/h (3 Bft)
27.06.2018 14:00 21,4 C 55 % 1017,3 hPa 0,0 l/m NO 0,00 h 330 W/m 15,2 km/h (3 Bft)
27.06.2018 15:00 22,2 C 53 % 1017,1 hPa 0,0 l/m O-NO 0,67 h 676 W/m 16,9 km/h (3 Bft)
27.06.2018 16:00 23,1 C 46 % 1016,6 hPa 0,0 l/m O-NO 0,83 h 627 W/m 18,6 km/h (3 Bft)
27.06.2018 17:00 23,6 C 38 % 1016,0 hPa 0,0 l/m O-NO 0,83 h 482 W/m 18,2 km/h (3 Bft)
27.06.2018 18:00 23,2 C 37 % 1015,9 hPa 0,0 l/m O-NO 0,92 h 396 W/m 18,9 km/h (3 Bft)
27.06.2018 19:00 21,7 C 45 % 1016,3 hPa 0,0 l/m O-NO 0,67 h 174 W/m 18,5 km/h (3 Bft)
27.06.2018 20:00 20,1 C 50 % 1016,6 hPa 0,0 l/m O 0,17 h 60 W/m 12,2 km/h (2 Bft)
27.06.2018 21:00 18,6 C 54 % 1017,1 hPa 0,0 l/m O 0,00 h 7 W/m 11,5 km/h (2 Bft)
27.06.2018 22:00 17,1 C 61 % 1017,5 hPa 0,0 l/m N 0,00 h 0 W/m 1,6 km/h (1 Bft)
27.06.2018 23:00 15,5 C 67 % 1017,6 hPa 0,0 l/m N 0,00 h 0 W/m 0,0 km/h (0 Bft)
28.06.2018 00:00 13,8 C 74 % 1017,5 hPa 0,0 l/m N 0,00 h 0 W/m 0,0 km/h (0 Bft)
28.06.2018 01:00 12,8 C 77 % 1017,5 hPa 0,0 l/m N 0,00 h 0 W/m 0,0 km/h (0 Bft)
28.06.2018 02:00 12,5 C 77 % 1017,3 hPa 0,0 l/m N 0,00 h 0 W/m 0,3 km/h (0 Bft)
28.06.2018 03:00 11,8 C 81 % 1016,8 hPa 0,0 l/m N 0,00 h 0 W/m 0,0 km/h (0 Bft)
28.06.2018 04:00 10,6 C 85 % 1016,5 hPa 0,0 l/m N 0,00 h 0 W/m 0,0 km/h (0 Bft)
28.06.2018 05:00 10,0 C 88 % 1016,6 hPa 0,0 l/m N 0,00 h 9 W/m 0,1 km/h (0 Bft)
28.06.2018 06:00 10,4 C 88 % 1016,6 hPa 0,0 l/m N 0,00 h 41 W/m 0,4 km/h (0 Bft)
28.06.2018 07:00 12,4 C 81 % 1016,5 hPa 0,0 l/m NO 0,42 h 155 W/m 6,6 km/h (2 Bft)
28.06.2018 08:00 14,2 C 76 % 1016,6 hPa 0,0 l/m NO 0,92 h 343 W/m 14,4 km/h (3 Bft)
28.06.2018 09:00 15,2 C 75 % 1016,6 hPa 0,0 l/m O-NO 0,08 h 241 W/m 11,5 km/h (2 Bft)
28.06.2018 10:00 16,8 C 71 % 1016,5 hPa 0,0 l/m O-NO 0,42 h 429 W/m 12,2 km/h (2 Bft)
28.06.2018 11:00 18,2 C 67 % 1016,3 hPa 0,0 l/m O-NO 0,25 h 372 W/m 14,9 km/h (3 Bft)
28.06.2018 12:00 17,6 C 73 % 1016,3 hPa 0,0 l/m O-NO 0,17 h 253 W/m 17,0 km/h (3 Bft)
28.06.2018 13:00 18,1 C 72 % 1016,2 hPa 0,0 l/m O 0,33 h 468 W/m 17,7 km/h (3 Bft)
28.06.2018 14:00 19,2 C 68 % 1015,7 hPa 0,0 l/m O-NO 0,33 h 402 W/m 18,5 km/h (3 Bft)
28.06.2018 15:00 18,7 C 72 % 1015,5 hPa 0,0 l/m O-NO 0,33 h 367 W/m 14,9 km/h (3 Bft)
28.06.2018 16:00 18,7 C 71 % 1015,3 hPa 0,0 l/m SO 0,33 h 353 W/m 14,3 km/h (3 Bft)
28.06.2018 17:00 18,4 C 73 % 1015,1 hPa 0,0 l/m NO 0,08 h 226 W/m 8,7 km/h (2 Bft)
28.06.2018 18:00 18,1 C 76 % 1014,9 hPa 0,0 l/m NO 0,08 h 120 W/m 9,5 km/h (2 Bft)
28.06.2018 19:00 15,4 C 90 % 1015,4 hPa 7,4 l/m NO 0,00 h 30 W/m 12,2 km/h (2 Bft)
28.06.2018 20:00 14,2 C 94 % 1015,2 hPa 0,4 l/m NO 0,00 h 27 W/m 6,7 km/h (2 Bft)
28.06.2018 21:00 14,0 C 96 % 1014,9 hPa 0,6 l/m N-NO 0,00 h 7 W/m 8,1 km/h (2 Bft)
28.06.2018 22:00 13,9 C 97 % 1014,9 hPa 0,4 l/m N-NO 0,00 h 0 W/m 8,6 km/h (2 Bft)
28.06.2018 23:00 13,9 C 98 % 1014,8 hPa 0,2 l/m N 0,00 h 0 W/m 7,0 km/h (2 Bft)
29.06.2018 00:00 14,2 C 98 % 1014,5 hPa 0,0 l/m N-NO 0,00 h 0 W/m 5,3 km/h (1 Bft)
29.06.2018 01:00 14,2 C 98 % 1014,3 hPa 0,0 l/m NO 0,00 h 0 W/m 5,1 km/h (1 Bft)
29.06.2018 02:00 14,2 C 98 % 1014,4 hPa 0,0 l/m NO 0,00 h 0 W/m 8,5 km/h (2 Bft)
29.06.2018 03:00 14,2 C 98 % 1014,1 hPa 0,0 l/m NO 0,00 h 0 W/m 3,9 km/h (1 Bft)
29.06.2018 04:00 14,2 C 98 % 1013,9 hPa 0,0 l/m NO 0,00 h 0 W/m 6,1 km/h (2 Bft)
29.06.2018 05:00 14,1 C 98 % 1013,7 hPa 0,0 l/m NO 0,00 h 6 W/m 6,0 km/h (2 Bft)
29.06.2018 06:00 14,2 C 98 % 1013,5 hPa 0,0 l/m NO 0,00 h 8 W/m 4,3 km/h (1 Bft)
29.06.2018 07:00 14,4 C 98 % 1013,5 hPa 0,0 l/m O-NO 0,00 h 43 W/m 6,4 km/h (2 Bft)
29.06.2018 08:00 14,9 C 97 % 1013,6 hPa 0,0 l/m NO 0,00 h 93 W/m 6,3 km/h (2 Bft)
29.06.2018 09:00 15,9 C 94 % 1013,6 hPa 0,0 l/m NO 0,08 h 242 W/m 8,6 km/h (2 Bft)
29.06.2018 10:00 16,8 C 90 % 1013,7 hPa 0,0 l/m NO 0,17 h 261 W/m 14,9 km/h (3 Bft)
29.06.2018 11:00 17,3 C 89 % 1013,7 hPa 0,0 l/m O-NO 0,08 h 298 W/m 15,0 km/h (3 Bft)
29.06.2018 12:00 18,7 C 84 % 1013,4 hPa 0,0 l/m O-NO 0,17 h 436 W/m 15,6 km/h (3 Bft)
29.06.2018 13:00 21,5 C 76 % 1012,8 hPa 0,0 l/m O 0,92 h 936 W/m 14,0 km/h (3 Bft)
29.06.2018 14:00 22,8 C 71 % 1012,4 hPa 0,0 l/m O-NO 0,42 h 572 W/m 18,0 km/h (3 Bft)
29.06.2018 15:00 23,1 C 70 % 1012,3 hPa 0,0 l/m O-NO 0,42 h 549 W/m 16,2 km/h (3 Bft)
29.06.2018 16:00 23,6 C 69 % 1012,0 hPa 0,0 l/m O-NO 0,33 h 464 W/m 15,8 km/h (3 Bft)
29.06.2018 17:00 23,5 C 69 % 1011,6 hPa 0,0 l/m O-NO 0,50 h 405 W/m 16,2 km/h (3 Bft)
29.06.2018 18:00 23,6 C 67 % 1011,4 hPa 0,0 l/m O-NO 1,00 h 346 W/m 13,7 km/h (3 Bft)
29.06.2018 19:00 23,2 C 69 % 1011,3 hPa 0,0 l/m O 0,92 h 180 W/m 12,3 km/h (3 Bft)
29.06.2018 20:00 21,9 C 75 % 1011,6 hPa 0,0 l/m N 0,00 h 50 W/m 3,2 km/h (1 Bft)
29.06.2018 21:00 20,3 C 81 % 1011,6 hPa 0,0 l/m N 0,08 h 10 W/m 0,0 km/h (0 Bft)
29.06.2018 22:00 17,8 C 91 % 1011,8 hPa 0,0 l/m N 0,00 h 0 W/m 0,0 km/h (0 Bft)
29.06.2018 23:00 16,9 C 94 % 1011,8 hPa 0,0 l/m N 0,00 h 0 W/m 0,0 km/h (0 Bft)
30.06.2018 00:00 16,2 C 95 % 1011,6 hPa 0,0 l/m N 0,00 h 0 W/m 0,0 km/h (0 Bft)
30.06.2018 01:00 15,7 C 97 % 1011,3 hPa 0,0 l/m N 0,00 h 0 W/m 0,0 km/h (0 Bft)
30.06.2018 02:00 15,5 C 97 % 1011,0 hPa 0,0 l/m N 0,00 h 0 W/m 0,3 km/h (0 Bft)
30.06.2018 03:00 15,2 C 98 % 1010,8 hPa 0,0 l/m N 0,00 h 0 W/m 0,7 km/h (0 Bft)
30.06.2018 04:00 14,9 C 98 % 1010,5 hPa 0,0 l/m N 0,00 h 0 W/m 0,0 km/h (0 Bft)
30.06.2018 05:00 14,8 C 98 % 1010,5 hPa 0,0 l/m N 0,00 h 12 W/m 0,3 km/h (0 Bft)
30.06.2018 06:00 14,7 C 98 % 1010,6 hPa 0,0 l/m N 0,00 h 67 W/m 0,3 km/h (0 Bft)
30.06.2018 07:00 15,5 C 98 % 1010,9 hPa 0,0 l/m N 0,58 h 183 W/m 0,0 km/h (0 Bft)
30.06.2018 08:00 19,0 C 87 % 1010,8 hPa 0,0 l/m N 1,00 h 376 W/m 0,1 km/h (0 Bft)
30.06.2018 09:00 21,6 C 75 % 1010,6 hPa 0,0 l/m N 0,83 h 435 W/m 0,7 km/h (0 Bft)
30.06.2018 10:00 24,0 C 66 % 1010,6 hPa 0,0 l/m O-NO 0,92 h 613 W/m 4,0 km/h (1 Bft)
30.06.2018 11:00 25,6 C 60 % 1010,5 hPa 0,0 l/m O 0,92 h 763 W/m 5,5 km/h (1 Bft)
30.06.2018 12:00 26,4 C 54 % 1010,2 hPa 0,0 l/m O-SO 0,75 h 879 W/m 7,9 km/h (2 Bft)
30.06.2018 13:00 26,5 C 53 % 1009,8 hPa 0,0 l/m N-NO 0,50 h 521 W/m 6,8 km/h (2 Bft)
30.06.2018 14:00 27,8 C 47 % 1009,3 hPa 0,0 l/m NO 0,75 h 677 W/m 11,4 km/h (2 Bft)
30.06.2018 15:00 28,0 C 48 % 1009,2 hPa 0,0 l/m O 0,67 h 690 W/m 14,0 km/h (3 Bft)
30.06.2018 16:00 28,6 C 45 % 1008,8 hPa 0,0 l/m O-NO 1,00 h 678 W/m 15,4 km/h (3 Bft)
30.06.2018 17:00 28,0 C 45 % 1008,9 hPa 0,0 l/m O 0,83 h 483 W/m 14,9 km/h (3 Bft)
30.06.2018 18:00 27,7 C 45 % 1008,7 hPa 0,0 l/m O 1,00 h 363 W/m 16,0 km/h (3 Bft)
30.06.2018 19:00 26,5 C 49 % 1008,6 hPa 0,0 l/m O-NO 1,00 h 186 W/m 13,7 km/h (3 Bft)
30.06.2018 20:00 24,6 C 55 % 1008,8 hPa 0,0 l/m O-NO 0,00 h 50 W/m 10,5 km/h (2 Bft)
30.06.2018 21:00 22,6 C 63 % 1009,2 hPa 0,0 l/m O-NO 0,08 h 9 W/m 6,7 km/h (2 Bft)
30.06.2018 22:00 20,4 C 72 % 1009,7 hPa 0,0 l/m N 0,00 h 0 W/m 0,3 km/h (0 Bft)
30.06.2018 23:00 18,6 C 81 % 1010,0 hPa 0,0 l/m N 0,00 h 0 W/m 0,0 km/h (0 Bft)
01.07.2018 00:00 18,2 C 82 % 1010,2 hPa 0,0 l/m O-NO 0,00 h 0 W/m 2,4 km/h (1 Bft)
01.07.2018 01:00 17,4 C 78 % 1010,2 hPa 0,0 l/m NO 0,00 h 0 W/m 9,1 km/h (2 Bft)
01.07.2018 02:00 16,4 C 68 % 1010,4 hPa 0,0 l/m NO 0,00 h 0 W/m 10,9 km/h (2 Bft)
01.07.2018 03:00 14,9 C 69 % 1010,5 hPa 0,0 l/m NO 0,00 h 0 W/m 7,2 km/h (2 Bft)
01.07.2018 04:00 13,5 C 73 % 1010,7 hPa 0,0 l/m NO 0,00 h 0 W/m 8,0 km/h (2 Bft)
01.07.2018 05:00 12,5 C 76 % 1011,0 hPa 0,0 l/m NO 0,08 h 12 W/m 7,9 km/h (2 Bft)
01.07.2018 06:00 12,3 C 77 % 1011,3 hPa 0,0 l/m NO 0,25 h 72 W/m 9,0 km/h (2 Bft)
01.07.2018 07:00 13,5 C 73 % 1011,6 hPa 0,0 l/m NO 0,67 h 197 W/m 11,8 km/h (2 Bft)
01.07.2018 08:00 15,1 C 70 % 1011,6 hPa 0,0 l/m NO 1,00 h 381 W/m 14,0 km/h (3 Bft)
01.07.2018 09:00 17,2 C 65 % 1011,5 hPa 0,0 l/m NO 0,75 h 412 W/m 14,0 km/h (3 Bft)
01.07.2018 10:00 19,3 C 61 % 1011,5 hPa 0,0 l/m NO 0,92 h 620 W/m 16,1 km/h (3 Bft)
01.07.2018 11:00 21,2 C 55 % 1011,4 hPa 0,0 l/m O-NO 1,00 h 794 W/m 20,1 km/h (4 Bft)
01.07.2018 12:00 22,8 C 50 % 1011,5 hPa 0,0 l/m O-NO 1,00 h 864 W/m 21,0 km/h (4 Bft)
01.07.2018 13:00 24,0 C 45 % 1011,3 hPa 0,0 l/m O-SO 1,00 h 876 W/m 22,0 km/h (4 Bft)
01.07.2018 14:00 24,8 C 43 % 1011,1 hPa 0,0 l/m O-NO 1,00 h 858 W/m 20,5 km/h (4 Bft)
01.07.2018 15:00 25,1 C 43 % 1010,8 hPa 0,0 l/m O-NO 1,00 h 781 W/m 20,9 km/h (4 Bft)
01.07.2018 16:00 25,3 C 44 % 1010,5 hPa 0,0 l/m O-NO 1,00 h 669 W/m 19,0 km/h (3 Bft)
01.07.2018 17:00 25,0 C 45 % 1010,4 hPa 0,0 l/m O-SO 1,00 h 528 W/m 20,4 km/h (4 Bft)
01.07.2018 18:00 24,3 C 47 % 1010,3 hPa 0,0 l/m O 1,00 h 367 W/m 19,3 km/h (3 Bft)
01.07.2018 19:00 23,1 C 48 % 1010,4 hPa 0,0 l/m O 1,00 h 199 W/m 17,8 km/h (3 Bft)
01.07.2018 20:00 21,3 C 49 % 1010,6 hPa 0,0 l/m O 0,08 h 48 W/m 15,8 km/h (3 Bft)
01.07.2018 21:00 19,7 C 51 % 1011,0 hPa 0,0 l/m O 0,08 h 9 W/m 11,3 km/h (2 Bft)
01.07.2018 22:00 18,1 C 54 % 1011,3 hPa 0,0 l/m O-NO 0,00 h 0 W/m 9,7 km/h (2 Bft)
01.07.2018 23:00 16,8 C 57 % 1011,3 hPa 0,0 l/m O-NO 0,00 h 0 W/m 8,6 km/h (2 Bft)
Min-Datum _ 26.06.18 27.06.18 30.06.18 - - - - 25.06.18
_ Min-Zeit 04:45 17:40 19:45 - - - - 00:00
Minimum _ 9,6 C 36 % 1008,5 hPa - - - - 0,0 km/h (0 Bft)
Max-Datum _ 30.06.18 30.06.18 25.06.18 28.06.18 - 25.06.18 25.06.18 28.06.18
_ Max-Zeit 16:00 07:05 22:35 19:15 - 08:20 12:55 14:00
Maximum _ 28,9 C 99 % 1020,8 hPa 7,4 l/m - 0,08 h 1373 W/m 29,0 km/h
O-NO (5 Bft)
Durchschnitt _ 17,7 C 73 % 1015,3 hPa #9,6 l/m O-NO #56:05 h 344 W/m 7,6 km/h (2 Bft)